TAP1542 GVNP-LPPT
Flight info
| Callsign | TAP1542 |
|---|---|
| Flight time | N/A |
| Altitude | 35000 |
| Route | AMDER1N CVS UN873 IPERA N873 GDV N858 VASTO DCT BAROK DCT VATZI |
| Aircraft | A21N/M-SADE3FGHIJ1J3J7M3RWXYZ/LB1D1 |
Departure
| Time | 2026-04-28 14:35 |
|---|---|
| Airport | Nelson Mandela International Airport (GVNP) |
Arrival
| Time | N/A |
|---|---|
| Airport | Lisbon Humberto Delgado Airport (LPPT) |
| Time | Latitude | Longitude | Altitude | Speed | Heading |
|---|---|---|---|---|---|
| 2026-04-28 14:18 | 14.94477 | -23.48563 | 322 ft | 0 kts | 291° |
| 2026-04-28 14:26 | 14.94474 | -23.48556 | 322 ft | 2 kts | 291° |
| 2026-04-28 14:27 | 14.94471 | -23.48547 | 322 ft | 2 kts | 290° |
| 2026-04-28 14:27 | 14.94468 | -23.48531 | 321 ft | 2 kts | 266° |
| 2026-04-28 14:27 | 14.94470 | -23.48516 | 320 ft | 2 kts | 249° |
| 2026-04-28 14:27 | 14.94478 | -23.48502 | 320 ft | 2 kts | 230° |
| 2026-04-28 14:28 | 14.94489 | -23.48491 | 320 ft | 2 kts | 211° |
| 2026-04-28 14:28 | 14.94496 | -23.48487 | 320 ft | 1 kts | 199° |
| 2026-04-28 14:28 | 14.94500 | -23.48486 | 320 ft | 0 kts | 202° |
| 2026-04-28 14:30 | 14.94498 | -23.48487 | 320 ft | 1 kts | 203° |
| 2026-04-28 14:30 | 14.94478 | -23.48495 | 320 ft | 4 kts | 203° |
| 2026-04-28 14:31 | 14.94440 | -23.48512 | 319 ft | 7 kts | 203° |
| 2026-04-28 14:31 | 14.94382 | -23.48523 | 317 ft | 10 kts | 161° |
| 2026-04-28 14:31 | 14.94338 | -23.48448 | 313 ft | 14 kts | 112° |
| 2026-04-28 14:31 | 14.94255 | -23.48413 | 311 ft | 14 kts | 199° |
| 2026-04-28 14:32 | 14.94156 | -23.48455 | 310 ft | 16 kts | 202° |
| 2026-04-28 14:32 | 14.94050 | -23.48499 | 311 ft | 16 kts | 202° |
| 2026-04-28 14:32 | 14.93937 | -23.48547 | 310 ft | 18 kts | 202° |
| 2026-04-28 14:32 | 14.93806 | -23.48600 | 308 ft | 21 kts | 201° |
| 2026-04-28 14:33 | 14.93662 | -23.48658 | 305 ft | 23 kts | 202° |
| 2026-04-28 14:33 | 14.93502 | -23.48726 | 303 ft | 25 kts | 201° |
| 2026-04-28 14:33 | 14.93336 | -23.48793 | 294 ft | 20 kts | 202° |
| 2026-04-28 14:33 | 14.93258 | -23.48849 | 289 ft | 10 kts | 173° |
| 2026-04-28 14:34 | 14.93325 | -23.48798 | 293 ft | 18 kts | 22° |
| 2026-04-28 14:34 | 14.93688 | -23.48648 | 306 ft | 91 kts | 21° |
| 2026-04-28 14:34 | 14.94168 | -23.48450 | 311 ft | 133 kts | 22° |
| 2026-04-28 14:35 | 14.95556 | -23.47872 | 666 ft | 172 kts | 22° |
| 2026-04-28 14:35 | 14.96669 | -23.47439 | 1399 ft | 172 kts | 20° |
| 2026-04-28 14:35 | 14.97758 | -23.46997 | 2191 ft | 169 kts | 23° |
| 2026-04-28 14:35 | 14.98855 | -23.46517 | 2724 ft | 177 kts | 22° |
| 2026-04-28 14:36 | 15.00049 | -23.46019 | 3099 ft | 193 kts | 22° |
| 2026-04-28 14:36 | 15.01348 | -23.45482 | 3484 ft | 209 kts | 22° |
| 2026-04-28 14:36 | 15.02774 | -23.44892 | 3820 ft | 230 kts | 21° |
| 2026-04-28 14:36 | 15.04321 | -23.44252 | 4176 ft | 250 kts | 21° |
| 2026-04-28 14:37 | 15.06006 | -23.43555 | 4636 ft | 266 kts | 21° |
| 2026-04-28 14:37 | 15.07762 | -23.42827 | 5278 ft | 274 kts | 20° |
| 2026-04-28 14:37 | 15.09543 | -23.42106 | 5943 ft | 279 kts | 17° |
| 2026-04-28 14:37 | 15.11438 | -23.41513 | 6591 ft | 285 kts | 11° |
| 2026-04-28 14:38 | 15.13396 | -23.41098 | 7275 ft | 289 kts | 8° |
| 2026-04-28 14:38 | 15.15392 | -23.40723 | 7930 ft | 294 kts | 7° |
| 2026-04-28 14:38 | 15.17436 | -23.40346 | 8567 ft | 298 kts | 8° |
| 2026-04-28 14:38 | 15.19493 | -23.39964 | 9196 ft | 302 kts | 7° |
| 2026-04-28 14:39 | 15.21562 | -23.39578 | 9783 ft | 306 kts | 7° |
| 2026-04-28 14:39 | 15.23691 | -23.39178 | 10414 ft | 310 kts | 7° |
| 2026-04-28 14:39 | 15.25876 | -23.38769 | 10771 ft | 325 kts | 8° |
| 2026-04-28 14:39 | 15.28163 | -23.38341 | 11051 ft | 340 kts | 8° |
| 2026-04-28 14:40 | 15.30533 | -23.37895 | 11328 ft | 355 kts | 8° |
| 2026-04-28 14:40 | 15.31364 | -23.37738 | 11466 ft | 358 kts | 8° |
| 2026-04-28 14:40 | 15.35509 | -23.36953 | 12449 ft | 363 kts | 8° |
| 2026-04-28 14:40 | 15.37988 | -23.36482 | 13045 ft | 365 kts | 7° |
| 2026-04-28 14:41 | 15.40522 | -23.36003 | 13621 ft | 367 kts | 7° |
| 2026-04-28 14:41 | 15.43035 | -23.35529 | 14203 ft | 368 kts | 8° |
| 2026-04-28 14:41 | 15.45571 | -23.35049 | 14776 ft | 370 kts | 8° |
| 2026-04-28 14:41 | 15.48121 | -23.34566 | 15344 ft | 371 kts | 8° |
| 2026-04-28 14:42 | 15.50682 | -23.34083 | 15882 ft | 372 kts | 8° |
| 2026-04-28 14:42 | 15.53234 | -23.33600 | 16407 ft | 374 kts | 8° |
| 2026-04-28 14:42 | 15.55788 | -23.33116 | 16924 ft | 375 kts | 8° |
| 2026-04-28 14:42 | 15.58394 | -23.32585 | 17436 ft | 377 kts | 11° |
| 2026-04-28 14:43 | 15.60937 | -23.31905 | 17932 ft | 380 kts | 14° |
| 2026-04-28 14:43 | 15.63480 | -23.31098 | 18410 ft | 382 kts | 15° |
| 2026-04-28 14:43 | 15.66042 | -23.30266 | 18857 ft | 384 kts | 15° |
| 2026-04-28 14:43 | 15.68609 | -23.29431 | 19275 ft | 387 kts | 14° |
| 2026-04-28 14:44 | 15.71181 | -23.28593 | 19695 ft | 390 kts | 14° |
| 2026-04-28 14:44 | 15.73794 | -23.27743 | 20121 ft | 392 kts | 14° |
| 2026-04-28 14:44 | 15.76421 | -23.26888 | 20536 ft | 394 kts | 14° |
| 2026-04-28 14:44 | 15.79081 | -23.26023 | 20939 ft | 397 kts | 14° |
| 2026-04-28 14:45 | 15.81714 | -23.25166 | 21336 ft | 399 kts | 14° |
| 2026-04-28 14:45 | 15.84371 | -23.24302 | 21726 ft | 401 kts | 14° |
| 2026-04-28 14:45 | 15.87044 | -23.23434 | 22097 ft | 403 kts | 13° |
| 2026-04-28 14:45 | 15.88861 | -23.22843 | 22346 ft | 405 kts | 13° |
| 2026-04-28 14:46 | 15.92462 | -23.21670 | 22817 ft | 409 kts | 13° |
| 2026-04-28 14:46 | 15.95192 | -23.20783 | 23161 ft | 411 kts | 13° |
| 2026-04-28 14:46 | 15.97938 | -23.19890 | 23490 ft | 414 kts | 13° |
| 2026-04-28 14:46 | 16.00719 | -23.18983 | 23833 ft | 417 kts | 13° |
| 2026-04-28 14:47 | 16.03489 | -23.18080 | 24180 ft | 419 kts | 13° |
| 2026-04-28 14:47 | 16.06302 | -23.17163 | 24531 ft | 421 kts | 13° |
| 2026-04-28 14:47 | 16.09135 | -23.16239 | 24871 ft | 423 kts | 13° |
| 2026-04-28 14:47 | 16.11937 | -23.15325 | 25189 ft | 425 kts | 13° |
| 2026-04-28 14:48 | 16.14805 | -23.14389 | 25514 ft | 427 kts | 13° |
| 2026-04-28 14:48 | 16.17647 | -23.13462 | 25823 ft | 430 kts | 13° |
| 2026-04-28 14:48 | 16.20511 | -23.12526 | 26131 ft | 431 kts | 13° |
| 2026-04-28 14:48 | 16.23416 | -23.11578 | 26435 ft | 434 kts | 12° |
| 2026-04-28 14:49 | 16.26307 | -23.10634 | 26711 ft | 436 kts | 13° |
| 2026-04-28 14:49 | 16.29200 | -23.09689 | 26990 ft | 438 kts | 13° |
| 2026-04-28 14:49 | 16.32144 | -23.08727 | 27246 ft | 440 kts | 13° |
| 2026-04-28 14:49 | 16.35083 | -23.07766 | 27509 ft | 442 kts | 12° |
| 2026-04-28 14:50 | 16.38046 | -23.06794 | 27784 ft | 444 kts | 12° |
| 2026-04-28 14:50 | 16.40991 | -23.05831 | 28044 ft | 446 kts | 12° |
| 2026-04-28 14:50 | 16.43991 | -23.04849 | 28309 ft | 448 kts | 12° |
| 2026-04-28 14:50 | 16.46989 | -23.03866 | 28567 ft | 449 kts | 12° |
| 2026-04-28 14:51 | 16.49965 | -23.02891 | 28836 ft | 450 kts | 12° |
| 2026-04-28 14:51 | 16.52982 | -23.01902 | 29094 ft | 452 kts | 12° |
| 2026-04-28 14:51 | 16.55991 | -23.00916 | 29341 ft | 453 kts | 12° |
| 2026-04-28 14:51 | 16.59011 | -22.99926 | 29597 ft | 454 kts | 12° |
| 2026-04-28 14:52 | 16.62038 | -22.98931 | 29866 ft | 455 kts | 12° |
| 2026-04-28 14:52 | 16.65068 | -22.97935 | 30198 ft | 454 kts | 12° |
| 2026-04-28 14:52 | 16.68075 | -22.96945 | 30542 ft | 453 kts | 12° |
| 2026-04-28 14:52 | 16.71082 | -22.95838 | 30853 ft | 454 kts | 15° |
| 2026-04-28 14:53 | 16.73997 | -22.94575 | 31184 ft | 456 kts | 18° |
| 2026-04-28 14:53 | 16.76880 | -22.93119 | 31509 ft | 457 kts | 21° |
| 2026-04-28 14:53 | 16.79649 | -22.91523 | 31784 ft | 458 kts | 23° |
| 2026-04-28 14:53 | 16.82429 | -22.89845 | 32069 ft | 458 kts | 24° |
| 2026-04-28 14:54 | 16.85195 | -22.88161 | 32355 ft | 457 kts | 24° |
| 2026-04-28 14:54 | 16.87932 | -22.86494 | 32635 ft | 456 kts | 23° |
| 2026-04-28 14:54 | 16.90693 | -22.84814 | 32938 ft | 455 kts | 24° |
| 2026-04-28 14:54 | 16.93396 | -22.83171 | 33213 ft | 454 kts | 23° |
| 2026-04-28 14:55 | 16.96177 | -22.81481 | 33428 ft | 455 kts | 23° |
| 2026-04-28 14:55 | 16.98926 | -22.79812 | 33596 ft | 456 kts | 23° |
| 2026-04-28 14:55 | 17.01677 | -22.78140 | 33783 ft | 457 kts | 23° |
| 2026-04-28 14:55 | 17.04431 | -22.76467 | 33961 ft | 458 kts | 23° |
| 2026-04-28 14:56 | 17.07194 | -22.74789 | 34127 ft | 459 kts | 23° |
| 2026-04-28 14:56 | 17.09976 | -22.73097 | 34296 ft | 460 kts | 23° |
| 2026-04-28 14:56 | 17.12730 | -22.71421 | 34464 ft | 461 kts | 24° |
| 2026-04-28 14:56 | 17.15514 | -22.69726 | 34637 ft | 461 kts | 23° |
| 2026-04-28 14:57 | 17.18286 | -22.68038 | 34789 ft | 462 kts | 24° |
| 2026-04-28 14:57 | 17.20173 | -22.66888 | 34903 ft | 463 kts | 24° |
| 2026-04-28 14:57 | 17.23891 | -22.64622 | 35027 ft | 465 kts | 23° |
| 2026-04-28 14:58 | 17.29511 | -22.61196 | 35030 ft | 465 kts | 24° |
| 2026-04-28 14:58 | 17.35106 | -22.57782 | 35029 ft | 465 kts | 23° |
| 2026-04-28 14:59 | 17.40699 | -22.54367 | 35029 ft | 465 kts | 23° |
| 2026-04-28 14:59 | 17.46291 | -22.50949 | 35027 ft | 465 kts | 23° |
| 2026-04-28 15:00 | 17.51905 | -22.47517 | 35027 ft | 465 kts | 23° |
| 2026-04-28 15:00 | 17.57530 | -22.44074 | 35023 ft | 465 kts | 23° |
| 2026-04-28 15:01 | 17.63137 | -22.40643 | 35024 ft | 465 kts | 23° |
| 2026-04-28 15:01 | 17.68724 | -22.37220 | 35022 ft | 465 kts | 23° |
| 2026-04-28 15:02 | 17.74313 | -22.33794 | 35021 ft | 465 kts | 23° |
| 2026-04-28 15:02 | 17.79920 | -22.30353 | 35022 ft | 465 kts | 23° |
| 2026-04-28 15:03 | 17.85515 | -22.26916 | 35027 ft | 466 kts | 23° |
| 2026-04-28 15:03 | 17.91148 | -22.23455 | 35039 ft | 466 kts | 23° |
| 2026-04-28 15:04 | 17.96754 | -22.20006 | 35041 ft | 466 kts | 23° |
| 2026-04-28 15:04 | 18.02362 | -22.16555 | 35045 ft | 466 kts | 23° |
| 2026-04-28 15:05 | 18.07981 | -22.13093 | 35042 ft | 466 kts | 22° |
| 2026-04-28 15:05 | 18.13572 | -22.09648 | 35039 ft | 466 kts | 22° |
| 2026-04-28 15:06 | 18.19193 | -22.06180 | 35041 ft | 466 kts | 22° |
| 2026-04-28 15:06 | 18.24767 | -22.02740 | 35041 ft | 466 kts | 22° |
| 2026-04-28 15:07 | 18.30411 | -21.99255 | 35039 ft | 466 kts | 22° |
| 2026-04-28 15:07 | 18.35987 | -21.95807 | 35030 ft | 466 kts | 22° |
| 2026-04-28 15:08 | 18.41604 | -21.92331 | 35026 ft | 465 kts | 22° |
| 2026-04-28 15:08 | 18.47179 | -21.88879 | 35029 ft | 466 kts | 22° |
| 2026-04-28 15:09 | 18.52791 | -21.85402 | 35029 ft | 466 kts | 22° |
| 2026-04-28 15:09 | 18.58405 | -21.81920 | 35032 ft | 467 kts | 22° |
| 2026-04-28 15:10 | 18.64023 | -21.78433 | 35036 ft | 467 kts | 22° |
| 2026-04-28 15:10 | 18.69615 | -21.74959 | 35035 ft | 466 kts | 22° |
| 2026-04-28 15:11 | 18.75236 | -21.71467 | 35037 ft | 467 kts | 22° |
| 2026-04-28 15:11 | 18.80842 | -21.67978 | 35039 ft | 467 kts | 22° |
| 2026-04-28 15:12 | 18.86448 | -21.64488 | 35039 ft | 466 kts | 22° |
| 2026-04-28 15:12 | 18.92042 | -21.61005 | 35037 ft | 466 kts | 22° |
| 2026-04-28 15:13 | 18.97657 | -21.57502 | 35040 ft | 467 kts | 22° |
| 2026-04-28 15:13 | 19.03245 | -21.54016 | 35046 ft | 467 kts | 22° |
| 2026-04-28 15:14 | 19.08853 | -21.50513 | 35042 ft | 467 kts | 21° |
| 2026-04-28 15:14 | 19.14471 | -21.47001 | 35052 ft | 466 kts | 21° |
| 2026-04-28 15:15 | 19.20024 | -21.43528 | 35040 ft | 466 kts | 21° |
| 2026-04-28 15:15 | 19.25651 | -21.40007 | 35045 ft | 467 kts | 21° |
| 2026-04-28 15:16 | 19.31260 | -21.36492 | 35043 ft | 466 kts | 21° |
| 2026-04-28 15:16 | 19.36837 | -21.32994 | 35051 ft | 465 kts | 21° |
| 2026-04-28 15:17 | 19.42425 | -21.29488 | 35052 ft | 466 kts | 21° |
| 2026-04-28 15:17 | 19.48020 | -21.25977 | 35040 ft | 466 kts | 21° |
| 2026-04-28 15:18 | 19.53586 | -21.22476 | 35054 ft | 465 kts | 21° |
| 2026-04-28 15:18 | 19.59220 | -21.18934 | 35044 ft | 467 kts | 21° |
| 2026-04-28 15:19 | 19.64801 | -21.15420 | 35042 ft | 467 kts | 21° |
| 2026-04-28 15:19 | 19.70374 | -21.11906 | 35046 ft | 465 kts | 21° |
| 2026-04-28 15:20 | 19.75962 | -21.08382 | 35043 ft | 466 kts | 21° |
| 2026-04-28 15:20 | 19.81557 | -21.04852 | 35042 ft | 466 kts | 21° |
| 2026-04-28 15:21 | 19.87104 | -21.01348 | 35042 ft | 465 kts | 21° |
| 2026-04-28 15:21 | 19.92700 | -20.97810 | 35030 ft | 466 kts | 21° |
| 2026-04-28 15:22 | 19.98282 | -20.94280 | 35029 ft | 467 kts | 21° |
| 2026-04-28 15:22 | 20.03858 | -20.90746 | 35027 ft | 466 kts | 21° |
| 2026-04-28 15:23 | 20.09451 | -20.87203 | 35023 ft | 466 kts | 21° |
| 2026-04-28 15:23 | 20.15044 | -20.83657 | 35024 ft | 467 kts | 21° |
| 2026-04-28 15:24 | 20.20651 | -20.80096 | 35022 ft | 467 kts | 21° |
| 2026-04-28 15:24 | 20.26242 | -20.76541 | 35024 ft | 467 kts | 21° |
| 2026-04-28 15:25 | 20.31804 | -20.72999 | 35023 ft | 467 kts | 21° |
| 2026-04-28 15:25 | 20.37408 | -20.69432 | 35024 ft | 465 kts | 21° |
| 2026-04-28 15:26 | 20.42946 | -20.65903 | 35027 ft | 465 kts | 21° |
| 2026-04-28 15:26 | 20.48551 | -20.62328 | 35024 ft | 467 kts | 21° |
| 2026-04-28 15:27 | 20.54104 | -20.58778 | 35025 ft | 466 kts | 21° |
| 2026-04-28 15:27 | 20.59691 | -20.55202 | 35022 ft | 467 kts | 20° |
| 2026-04-28 15:28 | 20.65261 | -20.51631 | 35020 ft | 465 kts | 20° |
| 2026-04-28 15:28 | 20.70830 | -20.48063 | 35017 ft | 467 kts | 20° |
| 2026-04-28 15:29 | 20.76427 | -20.44473 | 35020 ft | 468 kts | 20° |
| 2026-04-28 15:29 | 20.82028 | -20.40874 | 35026 ft | 466 kts | 20° |
| 2026-04-28 15:30 | 20.87599 | -20.37293 | 35026 ft | 467 kts | 20° |
| 2026-04-28 15:30 | 20.93177 | -20.33705 | 35022 ft | 468 kts | 21° |
| 2026-04-28 15:31 | 20.98781 | -20.30098 | 35025 ft | 469 kts | 21° |
| 2026-04-28 15:31 | 21.04384 | -20.26485 | 35034 ft | 468 kts | 21° |
| 2026-04-28 15:32 | 21.09951 | -20.22893 | 35026 ft | 467 kts | 21° |
| 2026-04-28 15:32 | 21.15540 | -20.19285 | 35039 ft | 467 kts | 21° |
| 2026-04-28 15:33 | 21.21118 | -20.15682 | 35023 ft | 468 kts | 21° |
| 2026-04-28 15:33 | 21.26714 | -20.12062 | 35022 ft | 467 kts | 21° |
| 2026-04-28 15:34 | 21.32272 | -20.08462 | 35036 ft | 467 kts | 21° |
| 2026-04-28 15:34 | 21.37838 | -20.04857 | 35024 ft | 467 kts | 21° |
| 2026-04-28 15:35 | 21.43425 | -20.01234 | 35026 ft | 468 kts | 21° |
| 2026-04-28 15:35 | 21.51830 | -19.95776 | 35027 ft | 468 kts | 21° |
| 2026-04-28 15:36 | 21.57416 | -19.92144 | 35022 ft | 469 kts | 21° |
| 2026-04-28 15:36 | 21.62995 | -19.88514 | 35025 ft | 469 kts | 21° |
| 2026-04-28 15:37 | 21.68570 | -19.84885 | 35030 ft | 468 kts | 21° |
| 2026-04-28 15:37 | 21.73246 | -19.81836 | 35030 ft | 469 kts | 21° |
| 2026-04-28 15:38 | 21.79754 | -19.77589 | 35032 ft | 468 kts | 21° |
| 2026-04-28 15:38 | 21.85330 | -19.73947 | 35023 ft | 469 kts | 21° |
| 2026-04-28 15:39 | 21.90940 | -19.70278 | 35027 ft | 468 kts | 21° |
| 2026-04-28 15:39 | 21.96494 | -19.66644 | 35023 ft | 469 kts | 21° |
| 2026-04-28 15:40 | 22.02106 | -19.62967 | 35023 ft | 469 kts | 21° |
| 2026-04-28 15:40 | 22.07693 | -19.59301 | 35028 ft | 469 kts | 21° |
| 2026-04-28 15:41 | 22.13273 | -19.55650 | 35027 ft | 470 kts | 21° |
| 2026-04-28 15:41 | 22.18864 | -19.51981 | 35029 ft | 470 kts | 21° |
| 2026-04-28 15:42 | 22.24444 | -19.48315 | 35028 ft | 471 kts | 21° |
| 2026-04-28 15:42 | 22.30057 | -19.44622 | 35028 ft | 471 kts | 22° |
| 2026-04-28 15:43 | 22.35658 | -19.40934 | 35027 ft | 471 kts | 22° |
| 2026-04-28 15:43 | 22.41241 | -19.37252 | 35023 ft | 470 kts | 22° |
| 2026-04-28 15:44 | 22.46851 | -19.33552 | 35021 ft | 472 kts | 22° |
| 2026-04-28 15:44 | 22.52459 | -19.29846 | 35029 ft | 472 kts | 22° |
| 2026-04-28 15:45 | 22.58084 | -19.26127 | 35026 ft | 471 kts | 23° |
| 2026-04-28 15:45 | 22.63682 | -19.22422 | 35030 ft | 471 kts | 23° |
| 2026-04-28 15:46 | 22.69285 | -19.18709 | 35025 ft | 471 kts | 23° |
| 2026-04-28 15:46 | 22.74907 | -19.14984 | 35028 ft | 471 kts | 23° |
| 2026-04-28 15:47 | 22.80530 | -19.11251 | 35031 ft | 472 kts | 23° |
| 2026-04-28 15:47 | 22.86117 | -19.07540 | 35024 ft | 471 kts | 23° |
| 2026-04-28 15:48 | 22.91736 | -19.03802 | 35027 ft | 471 kts | 24° |
| 2026-04-28 15:48 | 22.97342 | -19.00070 | 35026 ft | 472 kts | 24° |
| 2026-04-28 15:49 | 23.02952 | -18.96331 | 35030 ft | 472 kts | 24° |
| 2026-04-28 15:49 | 23.08568 | -18.92584 | 35018 ft | 471 kts | 24° |
| 2026-04-28 15:50 | 23.14173 | -18.88844 | 35021 ft | 472 kts | 24° |
| 2026-04-28 15:50 | 23.19764 | -18.85107 | 35016 ft | 472 kts | 24° |
| 2026-04-28 15:51 | 23.25377 | -18.81352 | 35022 ft | 472 kts | 24° |
| 2026-04-28 15:51 | 23.31027 | -18.77570 | 35030 ft | 474 kts | 24° |
| 2026-04-28 15:52 | 23.36644 | -18.73803 | 35028 ft | 473 kts | 24° |
| 2026-04-28 15:52 | 23.42264 | -18.70032 | 35027 ft | 474 kts | 24° |
| 2026-04-28 15:53 | 23.47867 | -18.66267 | 35024 ft | 473 kts | 24° |
| 2026-04-28 15:53 | 23.53504 | -18.62476 | 35035 ft | 472 kts | 24° |
| 2026-04-28 15:54 | 23.59110 | -18.58703 | 35029 ft | 472 kts | 24° |
| 2026-04-28 15:54 | 23.64661 | -18.54964 | 35026 ft | 472 kts | 24° |
| 2026-04-28 15:55 | 23.70267 | -18.51184 | 35022 ft | 473 kts | 24° |
| 2026-04-28 15:55 | 23.75895 | -18.47385 | 35026 ft | 473 kts | 25° |
| 2026-04-28 15:56 | 23.81480 | -18.43608 | 35027 ft | 473 kts | 25° |
| 2026-04-28 15:56 | 23.87093 | -18.39812 | 35025 ft | 473 kts | 25° |
| 2026-04-28 15:57 | 23.92712 | -18.36005 | 35018 ft | 472 kts | 25° |
| 2026-04-28 15:57 | 23.98270 | -18.32237 | 35013 ft | 472 kts | 25° |
| 2026-04-28 15:58 | 23.99542 | -18.31374 | 35018 ft | 472 kts | 25° |
| 2026-04-28 15:58 | 24.05165 | -18.27559 | 35010 ft | 473 kts | 25° |
| 2026-04-28 15:59 | 24.09852 | -18.24375 | 35013 ft | 473 kts | 25° |
| 2026-04-28 15:59 | 24.16379 | -18.19936 | 35021 ft | 473 kts | 25° |
| 2026-04-28 16:00 | 24.21992 | -18.16113 | 35021 ft | 473 kts | 25° |
| 2026-04-28 16:00 | 24.27578 | -18.12304 | 35022 ft | 472 kts | 25° |
| 2026-04-28 16:01 | 24.33155 | -18.08499 | 35026 ft | 472 kts | 25° |
| 2026-04-28 16:01 | 24.38736 | -18.04686 | 35021 ft | 471 kts | 25° |
| 2026-04-28 16:02 | 24.44188 | -18.00959 | 35024 ft | 472 kts | 26° |
| 2026-04-28 16:02 | 24.49774 | -17.97134 | 35020 ft | 472 kts | 25° |
| 2026-04-28 16:03 | 24.55322 | -17.93333 | 35019 ft | 472 kts | 26° |
| 2026-04-28 16:03 | 24.60924 | -17.89491 | 35018 ft | 472 kts | 26° |
| 2026-04-28 16:04 | 24.66511 | -17.85655 | 35013 ft | 472 kts | 26° |
| 2026-04-28 16:04 | 24.71138 | -17.82472 | 35014 ft | 471 kts | 26° |
| 2026-04-28 16:05 | 24.77679 | -17.77971 | 35021 ft | 471 kts | 26° |
| 2026-04-28 16:05 | 24.83236 | -17.74142 | 35029 ft | 471 kts | 26° |
| 2026-04-28 16:06 | 24.88796 | -17.70304 | 35027 ft | 471 kts | 26° |
| 2026-04-28 16:06 | 24.94359 | -17.66464 | 35031 ft | 472 kts | 26° |
| 2026-04-28 16:07 | 24.99946 | -17.62599 | 35020 ft | 472 kts | 26° |
| 2026-04-28 16:08 | 25.08249 | -17.56855 | 35021 ft | 472 kts | 26° |
| 2026-04-28 16:08 | 25.13789 | -17.53013 | 35025 ft | 471 kts | 26° |